createdAt,value
2019-01-22T00:00:50.723Z,18.30
2019-01-22T00:03:19.028Z,18.70
2019-01-22T00:05:46.994Z,17.93
2019-01-22T00:08:14.940Z,18.27
2019-01-22T00:10:42.969Z,18.83
2019-01-22T00:13:11.070Z,18.33
2019-01-22T00:15:39.460Z,18.03
2019-01-22T00:18:07.575Z,18.10
2019-01-22T00:20:36.329Z,18.67
2019-01-22T00:23:04.385Z,18.40
2019-01-22T00:25:32.414Z,17.40
2019-01-22T00:28:00.862Z,18.40
2019-01-22T00:30:28.548Z,17.20
2019-01-22T00:32:56.535Z,18.60
2019-01-22T00:35:24.528Z,17.90
2019-01-22T00:37:52.532Z,18.10
2019-01-22T00:40:20.202Z,18.70
2019-01-22T00:42:48.213Z,17.40
2019-01-22T00:45:16.541Z,18.60
2019-01-22T00:47:44.928Z,18.40
2019-01-22T00:50:14.217Z,18.17
2019-01-22T00:52:42.661Z,18.00
2019-01-22T00:55:11.296Z,18.00
2019-01-22T00:57:39.325Z,18.57
2019-01-22T01:00:09.816Z,18.20
2019-01-22T01:02:38.157Z,16.50
2019-01-22T01:05:08.563Z,17.30
2019-01-22T01:07:36.317Z,17.80
2019-01-22T01:10:05.357Z,17.57
2019-01-22T01:12:33.548Z,17.70
2019-01-22T01:15:01.912Z,19.13
2019-01-22T01:17:29.609Z,17.30
2019-01-22T01:19:58.026Z,17.90
2019-01-22T01:22:26.320Z,19.17
2019-01-22T01:24:54.658Z,16.80
2019-01-22T01:27:22.705Z,17.30
2019-01-22T01:29:50.995Z,17.50
2019-01-22T01:32:19.497Z,17.40
2019-01-22T01:34:47.450Z,17.77
2019-01-22T01:37:15.599Z,17.17
2019-01-22T01:39:44.270Z,18.13
2019-01-22T01:42:12.549Z,17.67
2019-01-22T01:44:40.338Z,17.80
2019-01-22T01:47:08.664Z,18.50
2019-01-22T01:49:36.714Z,16.77
2019-01-22T01:52:04.717Z,17.50
2019-01-22T01:54:33.106Z,17.07
2019-01-22T01:57:01.125Z,16.80
2019-01-22T01:59:29.652Z,17.30
2019-01-22T02:01:57.667Z,17.10
2019-01-22T02:04:25.575Z,16.23
2019-01-22T02:06:53.322Z,17.00
2019-01-22T02:09:21.282Z,18.17
2019-01-22T02:11:48.991Z,19.00
2019-01-22T02:14:18.902Z,17.13
2019-01-22T02:17:06.493Z,16.77
2019-01-22T02:19:40.227Z,17.63
2019-01-22T02:22:15.737Z,18.70
2019-01-22T02:25:02.778Z,17.00
2019-01-22T02:27:35.065Z,18.27
2019-01-22T02:30:21.821Z,17.77
2019-01-22T02:33:08.862Z,17.20
2019-01-22T02:35:55.642Z,18.33
2019-01-22T02:38:48.039Z,17.30
2019-01-22T02:44:13.953Z,17.90
2019-01-22T02:46:48.240Z,16.73
2019-01-22T02:49:35.264Z,17.13
2019-01-22T02:52:22.021Z,18.90
2019-01-22T02:55:13.086Z,17.77
2019-01-22T02:58:00.146Z,17.17
2019-01-22T03:00:46.990Z,16.63
2019-01-22T03:03:34.003Z,16.43
2019-01-22T03:06:20.832Z,16.90
2019-01-22T03:09:07.671Z,18.93
2019-01-22T03:11:44.477Z,18.53
2019-01-22T03:14:33.210Z,17.80
2019-01-22T03:17:20.053Z,17.40
2019-01-22T03:20:08.793Z,17.70
2019-01-22T03:22:55.556Z,18.00
2019-01-22T03:25:42.875Z,17.23
2019-01-22T03:28:30.047Z,17.53
2019-01-22T03:31:17.051Z,18.50
2019-01-22T03:34:04.067Z,18.20
2019-01-22T03:36:51.346Z,18.03
2019-01-22T03:39:25.298Z,17.13
2019-01-22T03:42:12.351Z,17.30
2019-01-22T03:44:59.113Z,18.10
2019-01-22T03:47:46.153Z,16.50
2019-01-22T03:50:20.691Z,17.53
2019-01-22T03:53:07.714Z,18.40
2019-01-22T03:55:39.094Z,17.43
2019-01-22T03:58:10.637Z,18.07
2019-01-22T04:03:47.247Z,18.33
2019-01-22T04:06:34.245Z,17.33
2019-01-22T04:09:07.092Z,16.87
2019-01-22T04:11:37.409Z,17.43
2019-01-22T04:14:06.039Z,16.70
2019-01-22T04:16:34.413Z,16.70
2019-01-22T04:19:02.330Z,17.37
2019-01-22T04:21:32.391Z,16.97
2019-01-22T04:24:09.189Z,17.83
2019-01-22T04:26:56.209Z,16.67
2019-01-22T04:29:27.953Z,18.07
2019-01-22T04:32:14.982Z,17.87
2019-01-22T04:35:01.933Z,16.73
2019-01-22T04:37:48.681Z,18.90
2019-01-22T04:40:35.993Z,16.73
2019-01-22T04:43:22.774Z,17.70
2019-01-22T04:48:46.894Z,17.37
2019-01-22T04:51:33.653Z,16.77
2019-01-22T04:54:09.796Z,16.73
2019-01-22T04:56:57.570Z,16.43
2019-01-22T04:59:44.576Z,16.70
2019-01-22T05:02:18.102Z,17.97
2019-01-22T05:05:05.124Z,15.83
2019-01-22T05:07:51.893Z,16.80
2019-01-22T05:10:39.163Z,16.63
2019-01-22T05:13:27.923Z,17.27
2019-01-22T05:16:14.677Z,18.43
2019-01-22T05:18:49.454Z,18.17
2019-01-22T05:21:36.745Z,16.53
2019-01-22T05:24:23.914Z,16.60
2019-01-22T05:26:59.492Z,16.30
2019-01-22T05:29:46.277Z,16.47
2019-01-22T05:32:17.333Z,18.17
2019-01-22T05:35:04.368Z,15.97
2019-01-22T05:37:51.873Z,17.30
2019-01-22T05:40:29.254Z,16.90
2019-01-22T05:43:00.709Z,16.63
2019-01-22T05:45:47.477Z,16.20
2019-01-22T05:48:17.544Z,17.53
2019-01-22T05:51:04.650Z,16.50
2019-01-22T05:53:51.670Z,17.37
2019-01-22T05:56:38.415Z,16.70
2019-01-22T05:59:25.685Z,16.50
2019-01-22T06:01:55.545Z,18.53
2019-01-22T06:04:42.619Z,17.83
2019-01-22T06:07:17.253Z,17.20
2019-01-22T06:10:04.273Z,18.20
2019-01-22T06:12:51.294Z,16.90
2019-01-22T06:15:38.073Z,17.35
2019-01-22T06:18:10.637Z,16.97
2019-01-22T06:20:57.833Z,17.20
2019-01-22T06:26:51.112Z,18.00
2019-01-22T06:29:37.890Z,16.50
2019-01-22T06:32:25.236Z,17.03
2019-01-22T06:34:55.261Z,19.00
2019-01-22T06:37:42.290Z,18.57
2019-01-22T06:40:29.323Z,18.10
2019-01-22T06:43:16.095Z,17.43
2019-01-22T06:46:02.861Z,18.80
2019-01-22T06:48:33.632Z,17.53
2019-01-22T06:51:20.385Z,17.07
2019-01-22T06:53:54.113Z,19.70
2019-01-22T06:56:40.872Z,20.03
2019-01-22T06:59:13.504Z,19.00
2019-01-22T07:01:44.958Z,18.50
2019-01-22T07:04:18.856Z,18.40
2019-01-22T07:07:05.717Z,17.73
2019-01-22T07:09:46.273Z,19.33
2019-01-22T07:12:21.673Z,19.43
2019-01-22T07:15:08.421Z,18.87
2019-01-22T07:17:39.461Z,18.53
2019-01-22T07:20:15.057Z,20.30
2019-01-22T07:23:02.191Z,19.30
2019-01-22T07:25:34.084Z,20.00
2019-01-22T07:28:21.090Z,19.17
2019-01-22T07:31:08.119Z,17.20
2019-01-22T07:33:54.874Z,19.67
2019-01-22T07:36:41.650Z,18.30
2019-01-22T07:39:14.000Z,19.97
2019-01-22T07:42:01.021Z,19.40
2019-01-22T07:44:50.805Z,19.67
2019-01-22T07:47:37.845Z,19.12
2019-01-22T07:50:25.171Z,19.27
2019-01-22T07:52:56.780Z,19.00
2019-01-22T07:55:43.920Z,18.60
2019-01-22T07:58:31.202Z,19.23
2019-01-22T08:01:18.219Z,18.63
2019-01-22T08:07:08.358Z,17.40
2019-01-22T08:09:55.375Z,17.80
2019-01-22T08:12:42.413Z,17.27
2019-01-22T08:15:29.534Z,16.60
2019-01-22T08:18:16.572Z,17.60
2019-01-22T08:21:03.594Z,17.53
2019-01-22T08:23:50.600Z,17.37
2019-01-22T08:26:37.378Z,16.00
2019-01-22T08:29:24.135Z,16.97
2019-01-22T08:31:57.737Z,16.70
2019-01-22T08:34:44.510Z,16.50
2019-01-22T08:37:31.617Z,15.03
2019-01-22T08:40:18.389Z,16.20
2019-01-22T08:43:05.379Z,17.00
2019-01-22T08:45:52.406Z,16.47
2019-01-22T08:48:39.156Z,15.53
2019-01-22T08:51:26.490Z,17.27
2019-01-22T08:54:07.468Z,16.50
2019-01-22T08:56:54.270Z,15.93
2019-01-22T08:59:41.098Z,16.70
2019-01-22T09:02:28.133Z,17.67
2019-01-22T09:05:15.180Z,17.40
2019-01-22T09:08:02.201Z,17.47
2019-01-22T09:10:48.981Z,17.00
2019-01-22T09:13:22.185Z,19.17
2019-01-22T09:16:09.457Z,16.90
2019-01-22T09:18:43.457Z,17.75
2019-01-22T09:21:30.201Z,17.17
2019-01-22T09:24:17.472Z,18.70
2019-01-22T09:27:04.493Z,17.05
2019-01-22T09:29:51.578Z,17.20
2019-01-22T09:32:26.905Z,18.23
2019-01-22T09:35:01.097Z,16.97
2019-01-22T09:37:31.016Z,17.33
2019-01-22T09:39:58.661Z,17.00
2019-01-22T09:42:26.935Z,19.10
2019-01-22T09:45:13.712Z,17.30
2019-01-22T09:48:00.487Z,18.17
2019-01-22T09:50:28.405Z,15.90
2019-01-22T09:52:56.056Z,17.73
2019-01-22T09:55:24.255Z,16.87
2019-01-22T09:57:52.225Z,18.73
2019-01-22T10:03:27.578Z,18.20
2019-01-22T10:05:55.518Z,16.90
2019-01-22T10:08:23.484Z,16.43
2019-01-22T10:11:10.241Z,17.43
2019-01-22T10:13:38.201Z,17.33
2019-01-22T10:16:06.229Z,18.10
2019-01-22T10:18:53.002Z,17.00
2019-01-22T10:21:21.367Z,16.67
2019-01-22T10:23:49.300Z,17.70
2019-01-22T10:26:16.940Z,16.80
2019-01-22T10:28:44.889Z,15.00
2019-01-22T10:31:13.154Z,15.57
2019-01-22T10:33:41.060Z,18.37
2019-01-22T10:36:09.032Z,18.13
2019-01-22T10:38:37.245Z,18.15
2019-01-22T10:41:04.901Z,17.90
2019-01-22T10:46:19.677Z,16.57
2019-01-22T10:48:48.117Z,17.53
2019-01-22T10:51:16.468Z,17.40
2019-01-22T10:53:44.211Z,18.00
2019-01-22T10:56:12.223Z,17.47
2019-01-22T10:58:40.611Z,17.60
2019-01-22T11:01:08.986Z,17.30
2019-01-22T11:03:36.664Z,19.83
2019-01-22T11:06:05.093Z,18.27
2019-01-22T11:08:33.115Z,17.67
2019-01-22T11:11:01.162Z,18.13
2019-01-22T11:13:29.200Z,17.50
2019-01-22T11:15:57.829Z,16.53
2019-01-22T11:18:26.101Z,17.07
2019-01-22T11:20:54.466Z,19.70
2019-01-22T11:23:22.471Z,18.77
2019-01-22T11:25:50.202Z,16.20
2019-01-22T11:28:18.586Z,16.37
2019-01-22T11:30:46.509Z,16.67
2019-01-22T11:33:14.730Z,13.80
2019-01-22T11:35:42.389Z,17.50
2019-01-22T11:38:12.733Z,16.10
2019-01-22T11:40:41.158Z,15.90
2019-01-22T11:43:09.141Z,16.47
2019-01-22T11:45:37.160Z,16.57
2019-01-22T11:48:06.039Z,18.80
2019-01-22T11:50:34.083Z,17.57
2019-01-22T11:53:02.371Z,16.47
2019-01-22T11:55:30.763Z,17.03
2019-01-22T11:57:58.710Z,13.90
2019-01-22T12:00:32.230Z,17.03
2019-01-22T12:03:00.260Z,17.40
2019-01-22T12:05:28.279Z,15.80
2019-01-22T12:07:56.292Z,17.37
2019-01-22T12:10:24.312Z,15.90
2019-01-22T12:12:51.978Z,16.20
2019-01-22T12:15:19.933Z,16.30
2019-01-22T12:17:48.078Z,16.30
2019-01-22T12:20:18.133Z,15.67
2019-01-22T12:22:45.789Z,16.60
2019-01-22T12:25:13.864Z,15.63
2019-01-22T12:27:42.285Z,15.73
2019-01-22T12:30:12.733Z,16.40
2019-01-22T12:32:41.260Z,16.43
2019-01-22T12:35:09.583Z,15.00
2019-01-22T12:37:37.417Z,17.33
2019-01-22T12:40:06.078Z,16.03
2019-01-22T12:42:34.354Z,16.20
2019-01-22T12:45:02.649Z,14.77
2019-01-22T12:47:31.118Z,15.00
2019-01-22T12:49:59.541Z,14.33
2019-01-22T12:52:27.789Z,16.13
2019-01-22T12:54:55.488Z,15.47
2019-01-22T12:57:23.469Z,14.57
2019-01-22T12:59:51.138Z,16.10
2019-01-22T13:02:19.098Z,15.07
2019-01-22T13:04:47.331Z,17.00
2019-01-22T13:07:15.061Z,15.77
2019-01-22T13:09:42.813Z,17.00
2019-01-22T13:12:10.859Z,14.47
2019-01-22T13:14:38.873Z,15.10
2019-01-22T13:17:06.525Z,14.90
2019-01-22T13:19:34.205Z,15.27
2019-01-22T13:22:02.345Z,16.50
2019-01-22T13:24:30.082Z,15.87
2019-01-22T13:26:57.747Z,15.83
2019-01-22T13:29:25.481Z,16.50
2019-01-22T13:31:53.665Z,14.50
2019-01-22T13:34:22.130Z,16.70
2019-01-22T13:36:50.059Z,13.80
2019-01-22T13:39:17.827Z,15.20
2019-01-22T13:41:45.487Z,13.70
2019-01-22T13:44:13.445Z,15.23
2019-01-22T13:46:41.442Z,15.17
2019-01-22T13:49:09.458Z,15.73
2019-01-22T13:51:37.726Z,15.70
2019-01-22T13:54:05.765Z,16.37
2019-01-22T13:56:33.729Z,15.90
2019-01-22T13:59:02.722Z,14.20
2019-01-22T14:01:31.249Z,15.53
2019-01-22T14:03:59.425Z,15.03
2019-01-22T14:06:27.619Z,15.53
2019-01-22T14:08:55.574Z,15.90
2019-01-22T14:11:23.666Z,15.27
2019-01-22T14:13:52.005Z,16.10
2019-01-22T14:16:20.100Z,15.60
2019-01-22T14:18:48.162Z,16.40
2019-01-22T14:21:16.258Z,14.90
2019-01-22T14:23:44.372Z,15.73
2019-01-22T14:26:12.341Z,16.80
2019-01-22T14:28:40.033Z,17.20
2019-01-22T14:31:08.443Z,16.73
2019-01-22T14:33:36.129Z,17.90
2019-01-22T14:36:04.457Z,15.97
2019-01-22T14:38:32.738Z,17.63
2019-01-22T14:41:00.398Z,16.77
2019-01-22T14:43:28.376Z,17.03
2019-01-22T14:45:56.380Z,17.63
2019-01-22T14:48:24.046Z,18.33
2019-01-22T14:50:52.061Z,16.50
2019-01-22T14:53:20.112Z,16.83
2019-01-22T14:55:48.434Z,16.93
2019-01-22T14:58:16.517Z,16.70
2019-01-22T15:00:44.983Z,15.80
2019-01-22T15:03:12.955Z,17.30
2019-01-22T15:05:40.688Z,18.48
2019-01-22T15:08:08.992Z,19.00
2019-01-22T15:10:37.429Z,18.43
2019-01-22T15:13:05.749Z,19.00
2019-01-22T15:15:34.025Z,17.80
2019-01-22T15:18:01.993Z,16.57
2019-01-22T15:20:29.649Z,16.70
2019-01-22T15:22:58.038Z,17.10
2019-01-22T15:25:26.774Z,17.03
2019-01-22T15:27:54.426Z,19.20
2019-01-22T15:30:24.214Z,17.23
2019-01-22T15:32:52.253Z,16.47
2019-01-22T15:35:20.529Z,16.60
2019-01-22T15:37:48.477Z,17.63
2019-01-22T15:40:17.441Z,17.43
2019-01-22T15:42:45.413Z,18.20
2019-01-22T15:45:13.497Z,15.90
2019-01-22T15:47:41.474Z,17.10
2019-01-22T15:50:10.477Z,17.90
2019-01-22T15:52:38.448Z,17.50
2019-01-22T15:55:07.272Z,17.60
2019-01-22T15:57:35.366Z,18.80
2019-01-22T16:00:03.021Z,17.43
2019-01-22T16:02:30.695Z,19.27
2019-01-22T16:04:58.994Z,17.03
2019-01-22T16:07:27.026Z,17.40
2019-01-22T16:09:54.710Z,17.83
2019-01-22T16:12:22.950Z,18.30
2019-01-22T16:14:50.971Z,18.07
2019-01-22T16:17:19.040Z,19.33
2019-01-22T16:19:47.429Z,17.17
2019-01-22T16:22:15.725Z,17.53
2019-01-22T16:24:43.795Z,17.00
2019-01-22T16:27:12.095Z,16.93
2019-01-22T16:29:40.021Z,18.30
2019-01-22T16:32:09.985Z,17.27
2019-01-22T16:34:39.225Z,16.73
2019-01-22T16:37:07.137Z,16.47
2019-01-22T16:39:35.121Z,16.90
2019-01-22T16:42:02.889Z,16.97
2019-01-22T16:44:30.816Z,16.03
2019-01-22T16:46:58.878Z,16.13
2019-01-22T16:49:27.194Z,17.00
2019-01-22T16:51:54.873Z,16.83
2019-01-22T16:54:22.548Z,16.73
2019-01-22T16:56:50.606Z,16.80
2019-01-22T16:59:18.333Z,17.00
2019-01-22T17:01:46.019Z,17.00
2019-01-22T17:04:14.830Z,17.90
2019-01-22T17:06:42.912Z,16.50
2019-01-22T17:09:10.954Z,16.27
2019-01-22T17:11:39.600Z,16.07
2019-01-22T17:14:08.025Z,16.43
2019-01-22T17:16:37.037Z,17.00
2019-01-22T17:19:04.981Z,17.73
2019-01-22T17:21:36.446Z,18.00
2019-01-22T17:24:04.496Z,17.60
2019-01-22T17:26:35.643Z,17.10
2019-01-22T17:29:06.471Z,17.70
2019-01-22T17:31:59.332Z,15.53
2019-01-22T17:34:27.810Z,16.67
2019-01-22T17:36:55.824Z,16.97
2019-01-22T17:39:25.901Z,16.50
2019-01-22T17:41:53.998Z,16.47
2019-01-22T17:44:24.245Z,16.50
2019-01-22T17:46:54.345Z,16.57
2019-01-22T17:49:25.089Z,16.50
2019-01-22T17:51:53.548Z,16.63
2019-01-22T17:54:21.882Z,16.50
2019-01-22T17:56:50.292Z,15.67
2019-01-22T17:59:18.323Z,16.60
2019-01-22T18:01:46.369Z,15.87
2019-01-22T18:04:14.065Z,15.60
2019-01-22T18:06:42.026Z,15.20
2019-01-22T18:09:09.765Z,15.60
2019-01-22T18:11:38.505Z,15.93
2019-01-22T18:14:06.509Z,16.50
2019-01-22T18:16:34.773Z,16.27
2019-01-22T18:19:03.085Z,16.70
2019-01-22T18:21:31.010Z,16.60
2019-01-22T18:23:58.965Z,15.80
2019-01-22T18:26:26.944Z,17.77
2019-01-22T18:28:55.129Z,17.30
2019-01-22T18:31:23.498Z,15.10
2019-01-22T18:33:51.174Z,16.20
2019-01-22T18:36:19.442Z,15.70
2019-01-22T18:38:47.128Z,17.10
2019-01-22T18:41:15.149Z,16.17
2019-01-22T18:43:43.144Z,16.20
2019-01-22T18:46:10.919Z,15.53
2019-01-22T18:48:39.017Z,16.93
2019-01-22T18:51:08.128Z,16.40
2019-01-22T18:53:36.165Z,16.57
2019-01-22T18:56:04.085Z,15.73
2019-01-22T18:58:31.818Z,15.50
2019-01-22T19:00:59.484Z,17.00
2019-01-22T19:03:27.659Z,17.50
2019-01-22T19:05:55.782Z,16.10
2019-01-22T19:08:24.008Z,16.00
2019-01-22T19:10:52.723Z,16.33
2019-01-22T19:13:20.990Z,15.93
2019-01-22T19:15:48.961Z,17.10
2019-01-22T19:18:17.757Z,17.40
2019-01-22T19:20:45.768Z,15.00
2019-01-22T19:23:13.509Z,18.43
2019-01-22T19:25:42.148Z,17.27
2019-01-22T19:28:10.508Z,19.13
2019-01-22T19:30:38.573Z,16.80
2019-01-22T19:33:06.979Z,17.63
2019-01-22T19:35:34.949Z,17.50
2019-01-22T19:38:03.223Z,17.70
2019-01-22T19:40:31.460Z,20.10
2019-01-22T19:42:59.462Z,18.57
2019-01-22T19:45:31.564Z,18.47
2019-01-22T19:48:00.032Z,17.07
2019-01-22T19:50:28.392Z,17.40
2019-01-22T19:52:56.783Z,19.10
2019-01-22T19:55:24.986Z,17.73
2019-01-22T19:57:52.673Z,19.47
2019-01-22T20:00:21.957Z,19.57
2019-01-22T20:02:49.679Z,18.60
2019-01-22T20:05:17.816Z,18.80
2019-01-22T20:07:46.427Z,18.83
2019-01-22T20:10:14.644Z,19.30
2019-01-22T20:12:42.957Z,18.73
2019-01-22T20:15:11.120Z,18.10
2019-01-22T20:17:39.429Z,20.77
2019-01-22T20:20:08.877Z,21.37
2019-01-22T20:22:37.630Z,23.73
2019-01-22T20:25:05.800Z,20.27
2019-01-22T20:27:34.278Z,19.77
2019-01-22T20:30:02.473Z,20.70
2019-01-22T20:32:30.482Z,20.00
2019-01-22T20:34:58.537Z,19.30
2019-01-22T20:37:26.525Z,20.23
2019-01-22T20:39:55.053Z,20.33
2019-01-22T20:42:22.705Z,20.70
2019-01-22T20:44:51.491Z,20.27
2019-01-22T20:47:19.167Z,19.80
2019-01-22T20:49:47.229Z,20.53
2019-01-22T20:52:15.199Z,19.67
2019-01-22T20:54:42.923Z,21.30
2019-01-22T20:57:11.150Z,19.80
2019-01-22T20:59:39.325Z,20.40
2019-01-22T21:02:06.984Z,20.00
2019-01-22T21:04:35.057Z,19.00
2019-01-22T21:07:02.727Z,19.80
2019-01-22T21:09:30.465Z,20.30
2019-01-22T21:11:58.845Z,20.20
2019-01-22T21:14:26.807Z,19.90
2019-01-22T21:16:54.887Z,19.00
2019-01-22T21:19:23.344Z,20.37
2019-01-22T21:21:51.761Z,20.47
2019-01-22T21:24:19.794Z,21.03
2019-01-22T21:26:47.801Z,19.10
2019-01-22T21:29:15.818Z,18.90
2019-01-22T21:31:44.147Z,18.17
2019-01-22T21:34:12.404Z,19.70
2019-01-22T21:36:41.230Z,19.37
2019-01-22T21:39:08.896Z,19.60
2019-01-22T21:41:37.255Z,19.50
2019-01-22T21:44:05.272Z,19.37
2019-01-22T21:46:33.700Z,19.20
2019-01-22T21:49:03.186Z,19.00
2019-01-22T21:51:31.131Z,19.60
2019-01-22T21:53:59.105Z,20.83
2019-01-22T21:56:27.089Z,19.30
2019-01-22T21:58:55.339Z,20.37
2019-01-22T22:01:23.621Z,21.10
2019-01-22T22:03:51.845Z,20.60
2019-01-22T22:06:19.885Z,22.53
2019-01-22T22:08:47.824Z,19.70
2019-01-22T22:11:15.892Z,21.00
2019-01-22T22:13:43.573Z,21.30
2019-01-22T22:16:11.549Z,20.67
2019-01-22T22:18:40.009Z,20.80
2019-01-22T22:21:07.669Z,21.87
2019-01-22T22:23:35.336Z,21.80
2019-01-22T22:26:03.277Z,21.70
2019-01-22T22:28:31.305Z,19.83
2019-01-22T22:30:59.715Z,21.93
2019-01-22T22:33:27.774Z,22.00
2019-01-22T22:35:56.501Z,20.03
2019-01-22T22:38:25.057Z,20.77
2019-01-22T22:40:52.742Z,20.80
2019-01-22T22:43:20.387Z,21.80
2019-01-22T22:45:49.091Z,22.10
2019-01-22T22:48:17.366Z,20.93
2019-01-22T22:50:45.027Z,21.13
2019-01-22T22:53:12.972Z,21.30
2019-01-22T22:55:41.026Z,22.70
2019-01-22T22:58:09.372Z,20.73
2019-01-22T23:00:49.216Z,20.80
2019-01-22T23:03:17.641Z,20.77
2019-01-22T23:05:45.317Z,20.47
2019-01-22T23:08:13.289Z,20.20
2019-01-22T23:10:41.317Z,21.77
2019-01-22T23:13:09.272Z,21.50
2019-01-22T23:15:37.595Z,21.33
2019-01-22T23:18:05.389Z,20.97
2019-01-22T23:20:33.429Z,21.90
2019-01-22T23:23:01.469Z,21.80
2019-01-22T23:25:29.453Z,21.60
2019-01-22T23:27:57.720Z,21.20
2019-01-22T23:30:25.750Z,22.43
2019-01-22T23:32:53.758Z,21.10
2019-01-22T23:35:21.726Z,20.80
2019-01-22T23:37:49.755Z,21.50
2019-01-22T23:40:18.006Z,20.73
2019-01-22T23:42:46.120Z,20.77
2019-01-22T23:45:14.114Z,20.97
2019-01-22T23:47:42.072Z,21.70
2019-01-22T23:50:10.359Z,20.80
2019-01-22T23:52:38.901Z,18.10
2019-01-22T23:55:07.379Z,20.43
2019-01-22T23:57:35.407Z,21.80
